Airfield :
LOGIN :

Register | Disclaimer

   EN    FR    IT 

 










Legend :    VFR   Marginal VFR   IFR   Intensive IFR   Very Intensive IFR
Visi :
Ceiling :
>= 8 km
>= 3000ft
5 to 8 km
1000 to 3000 ft
1500m to 5 km
500 to 1000 ft
800 to 1500m
200 to 500 ft
< 800m
< 200 ft
Symbols :   Thunderstorms  Fog  Heavy snow  Heavy precipitations  Wind > 20 kt
SIGMETs :     Misc.  Thunderstorms  Icing  Turbulence  Mountain Waves  Volcanic Ashes






- Airport Elevation : 268 ft
- IATA code : BFS


EGAA - Belfast Aldergrove

CURRENT METAR :
  • 152320Z 20005KT 9999 FEW013 BKN020 BKN025 03/02 Q0986

EXPIRED METARs :
  • 152250Z 18005KT 9999 BKN021 OVC040 03/02 Q0986
  • 152220Z 16005KT 9999 -RA BKN027 BKN033 BKN038 03/02 Q0986
  • 152150Z 11004KT 070V150 9999 FEW028 SCT034 01/M00 Q0986
  • 152120Z 14002KT 9999 FEW031 BKN037 01/01 Q0986
  • 152050Z 15004KT 9999 FEW040 01/01 Q0986

TAF TAF EGAA
Valid from the 15 at 18:00 until the 16 at 18:00 UTC


151700Z 1518/1618 VRB04KT 9999 SCT012
TEMPO 1518/1608 BKN004
TEMPO 1518/1602 6000 -SHRASN
PROB40
TEMPO 1521/1604 0500 FG BKN001
BECMG 1604/1608 21012KT
TEMPO 1608/1618 BKN010
PROB30
TEMPO 1608/1618 7000 SHRA



MET'MAP, your aeronautical weather chart ! - Copyright ORBIFLY December 2007 - Disclaimer

ORBIFLY MET'MAP TEAM :

Programming & Development : Alexandra Zaïnal
Concept & original design : Baudouin d'Aumeries
Assistance for programming : Marc-Olivier Méhu
Technical & hardware support : Manuel Goepfert

Contact : metmap@orbifly.com




SOURCES & CREDITS :

   NOAA